createdAt,value
2019-03-28T00:00:41.789Z,35.30
2019-03-28T00:01:41.757Z,34.60
2019-03-28T00:02:41.730Z,33.20
2019-03-28T00:03:41.701Z,33.00
2019-03-28T00:04:42.183Z,33.30
2019-03-28T00:05:41.644Z,35.30
2019-03-28T00:06:41.615Z,35.50
2019-03-28T00:07:41.588Z,34.50
2019-03-28T00:08:41.558Z,36.00
2019-03-28T00:09:41.529Z,30.80
2019-03-28T00:10:41.499Z,35.40
2019-03-28T00:11:41.472Z,36.10
2019-03-28T00:12:41.441Z,40.70
2019-03-28T00:13:41.415Z,37.00
2019-03-28T00:14:41.383Z,37.00
2019-03-28T00:15:41.357Z,37.60
2019-03-28T00:16:41.328Z,35.30
2019-03-28T00:17:41.300Z,31.00
2019-03-28T00:18:41.270Z,36.50
2019-03-28T00:19:41.241Z,36.20
2019-03-28T00:20:41.218Z,37.80
2019-03-28T00:21:41.184Z,37.00
2019-03-28T00:22:41.154Z,35.20
2019-03-28T00:23:41.128Z,35.70
2019-03-28T00:24:41.097Z,36.00
2019-03-28T00:25:41.072Z,39.00
2019-03-28T00:26:41.042Z,34.40
2019-03-28T00:27:41.012Z,32.70
2019-03-28T00:28:40.991Z,33.50
2019-03-28T00:29:40.952Z,33.00
2019-03-28T00:30:40.925Z,33.90
2019-03-28T00:31:40.911Z,31.60
2019-03-28T00:32:40.867Z,31.90
2019-03-28T00:33:40.838Z,32.00
2019-03-28T00:34:40.809Z,32.50
2019-03-28T00:35:40.780Z,38.00
2019-03-28T00:36:40.752Z,34.90
2019-03-28T00:37:40.723Z,36.50
2019-03-28T00:38:40.694Z,35.50
2019-03-28T00:39:40.664Z,35.60
2019-03-28T00:40:40.635Z,36.50
2019-03-28T00:41:40.608Z,34.10
2019-03-28T00:42:40.578Z,35.50
2019-03-28T00:43:40.549Z,38.70
2019-03-28T00:44:41.206Z,38.70
2019-03-28T00:45:40.491Z,35.50
2019-03-28T00:46:40.462Z,35.50
2019-03-28T00:47:40.437Z,40.10
2019-03-28T00:48:40.406Z,37.00
2019-03-28T00:49:40.382Z,38.20
2019-03-28T00:50:40.347Z,43.30
2019-03-28T00:51:43.032Z,38.60
2019-03-28T00:52:40.712Z,36.20
2019-03-28T00:53:40.263Z,39.40
2019-03-28T00:54:40.233Z,39.40
2019-03-28T00:55:40.204Z,40.40
2019-03-28T00:56:46.827Z,44.40
2019-03-28T00:57:40.146Z,39.60
2019-03-28T00:58:40.117Z,38.90
2019-03-28T00:59:40.093Z,38.60
2019-03-28T01:00:40.215Z,36.90
2019-03-28T01:01:40.031Z,42.80
2019-03-28T01:02:40.004Z,35.60
2019-03-28T01:03:39.972Z,40.40
2019-03-28T01:04:39.944Z,39.50
2019-03-28T01:05:39.917Z,44.80
2019-03-28T01:06:39.886Z,40.00
2019-03-28T01:07:39.857Z,44.90
2019-03-28T01:08:39.828Z,37.30
2019-03-28T01:09:39.803Z,38.10
2019-03-28T01:10:39.771Z,33.50
2019-03-28T01:11:39.743Z,33.90
2019-03-28T01:12:39.713Z,37.50
2019-03-28T01:13:39.685Z,36.60
2019-03-28T01:14:39.655Z,37.40
2019-03-28T01:15:39.627Z,37.90
2019-03-28T01:16:39.627Z,37.80
2019-03-28T01:17:39.569Z,37.80
2019-03-28T01:18:39.538Z,44.20
2019-03-28T01:19:39.511Z,38.20
2019-03-28T01:20:39.482Z,41.60
2019-03-28T01:21:39.456Z,47.60
2019-03-28T01:22:39.427Z,40.00
2019-03-28T01:23:39.397Z,39.10
2019-03-28T01:24:39.367Z,39.40
2019-03-28T01:25:39.338Z,39.70
2019-03-28T01:26:39.312Z,37.60
2019-03-28T01:27:39.281Z,41.10
2019-03-28T01:28:39.257Z,43.70
2019-03-28T01:29:39.222Z,43.70
2019-03-28T01:30:39.193Z,42.50
2019-03-28T01:31:39.165Z,37.10
2019-03-28T01:32:39.136Z,34.10
2019-03-28T01:33:39.112Z,38.20
2019-03-28T01:34:39.079Z,38.50
2019-03-28T01:35:39.049Z,42.80
2019-03-28T01:36:39.021Z,38.70
2019-03-28T01:37:38.991Z,42.80
2019-03-28T01:38:38.964Z,41.40
2019-03-28T01:39:38.934Z,45.40
2019-03-28T01:40:38.905Z,45.60
2019-03-28T01:41:38.878Z,36.10
2019-03-28T01:42:38.847Z,44.40
2019-03-28T01:43:38.819Z,40.70
2019-03-28T01:44:38.791Z,37.90
2019-03-28T01:45:38.762Z,43.20
2019-03-28T01:46:38.732Z,41.40
2019-03-28T01:47:38.703Z,40.70
2019-03-28T01:48:38.676Z,41.70
2019-03-28T01:49:38.646Z,41.50
2019-03-28T01:50:38.616Z,39.50
2019-03-28T01:51:38.588Z,44.90
2019-03-28T01:52:38.559Z,42.30
2019-03-28T01:53:38.532Z,41.60
2019-03-28T01:54:38.500Z,43.90
2019-03-28T01:55:38.472Z,42.60
2019-03-28T01:56:38.445Z,41.50
2019-03-28T01:57:38.912Z,43.60
2019-03-28T01:58:38.385Z,39.80
2019-03-28T01:59:38.356Z,45.90
2019-03-28T02:00:38.485Z,40.10
2019-03-28T02:01:38.299Z,41.00
2019-03-28T02:02:38.269Z,44.00
2019-03-28T02:03:38.241Z,45.00
2019-03-28T02:04:38.212Z,45.40
2019-03-28T02:05:38.185Z,50.40
2019-03-28T02:06:38.154Z,49.00
2019-03-28T02:07:38.126Z,46.30
2019-03-28T02:08:38.100Z,43.20
2019-03-28T02:09:38.073Z,41.00
2019-03-28T02:10:38.038Z,43.90
2019-03-28T02:11:38.010Z,44.30
2019-03-28T02:12:37.988Z,38.90
2019-03-28T02:13:37.954Z,46.30
2019-03-28T02:14:38.330Z,41.10
2019-03-28T02:15:37.898Z,38.90
2019-03-28T02:16:37.866Z,43.10
2019-03-28T02:17:37.836Z,43.60
2019-03-28T02:18:37.807Z,42.60
2019-03-28T02:19:37.777Z,46.70
2019-03-28T02:20:37.749Z,41.10
2019-03-28T02:21:37.722Z,39.20
2019-03-28T02:22:37.691Z,40.50
2019-03-28T02:23:37.663Z,41.70
2019-03-28T02:24:37.633Z,38.60
2019-03-28T02:25:37.604Z,42.40
2019-03-28T02:26:37.576Z,44.60
2019-03-28T02:27:37.545Z,45.20
2019-03-28T02:28:37.517Z,41.30
2019-03-28T02:29:37.487Z,46.10
2019-03-28T02:30:37.458Z,42.70
2019-03-28T02:31:37.430Z,43.00
2019-03-28T02:32:37.401Z,48.10
2019-03-28T02:33:37.372Z,44.10
2019-03-28T02:34:37.345Z,41.50
2019-03-28T02:35:37.320Z,44.70
2019-03-28T02:36:37.291Z,45.30
2019-03-28T02:37:37.256Z,38.90
2019-03-28T02:38:37.229Z,45.10
2019-03-28T02:39:37.200Z,45.00
2019-03-28T02:40:37.169Z,39.60
2019-03-28T02:41:37.141Z,40.20
2019-03-28T02:42:37.115Z,46.40
2019-03-28T02:43:37.095Z,41.90
2019-03-28T02:44:37.589Z,42.80
2019-03-28T02:45:37.027Z,48.80
2019-03-28T02:46:36.997Z,44.70
2019-03-28T02:47:36.969Z,42.10
2019-03-28T02:48:36.938Z,43.30
2019-03-28T02:49:36.913Z,46.50
2019-03-28T02:50:37.715Z,40.20
2019-03-28T02:51:36.861Z,44.70
2019-03-28T02:52:36.854Z,46.80
2019-03-28T02:53:36.794Z,46.30
2019-03-28T02:54:36.764Z,44.20
2019-03-28T02:55:36.735Z,42.80
2019-03-28T02:56:36.706Z,44.30
2019-03-28T02:57:41.726Z,41.30
2019-03-28T02:58:36.953Z,39.10
2019-03-28T02:59:36.619Z,45.70
2019-03-28T03:00:36.599Z,44.60
2019-03-28T03:01:36.570Z,40.40
2019-03-28T03:02:36.537Z,49.20
2019-03-28T03:03:36.506Z,45.00
2019-03-28T03:04:36.474Z,43.90
2019-03-28T03:05:36.447Z,45.50
2019-03-28T03:06:36.416Z,41.00
2019-03-28T03:07:36.394Z,48.30
2019-03-28T03:08:36.361Z,43.20
2019-03-28T03:09:36.334Z,42.80
2019-03-28T03:10:36.304Z,46.90
2019-03-28T03:11:36.279Z,42.20
2019-03-28T03:12:36.243Z,42.70
2019-03-28T03:13:36.213Z,43.60
2019-03-28T03:14:36.185Z,43.70
2019-03-28T03:15:36.155Z,47.20
2019-03-28T03:16:36.128Z,49.20
2019-03-28T03:17:36.099Z,45.40
2019-03-28T03:18:36.071Z,49.90
2019-03-28T03:19:36.039Z,47.80
2019-03-28T03:20:36.012Z,42.70
2019-03-28T03:21:36.314Z,47.50
2019-03-28T03:22:35.952Z,43.70
2019-03-28T03:23:35.929Z,42.10
2019-03-28T03:24:35.895Z,41.10
2019-03-28T03:25:35.868Z,39.70
2019-03-28T03:26:35.839Z,44.20
2019-03-28T03:27:35.809Z,52.10
2019-03-28T03:28:35.896Z,42.60
2019-03-28T03:29:35.754Z,43.30
2019-03-28T03:30:35.722Z,41.40
2019-03-28T03:31:35.696Z,46.20
2019-03-28T03:32:35.665Z,45.80
2019-03-28T03:33:37.115Z,45.10
2019-03-28T03:34:35.605Z,42.80
2019-03-28T03:35:35.578Z,45.40
2019-03-28T03:36:35.550Z,42.70
2019-03-28T03:37:35.520Z,38.60
2019-03-28T03:38:35.493Z,50.50
2019-03-28T03:39:35.470Z,43.00
2019-03-28T03:40:35.440Z,43.80
2019-03-28T03:41:35.406Z,45.90
2019-03-28T03:42:35.379Z,43.80
2019-03-28T03:43:35.345Z,48.70
2019-03-28T03:44:35.319Z,43.70
2019-03-28T03:45:35.721Z,44.70
2019-03-28T03:46:35.259Z,41.50
2019-03-28T03:47:35.230Z,42.90
2019-03-28T03:48:35.204Z,47.50
2019-03-28T03:49:35.178Z,42.40
2019-03-28T03:50:35.145Z,46.10
2019-03-28T03:51:35.122Z,49.10
2019-03-28T03:52:35.085Z,48.10
2019-03-28T03:53:35.058Z,49.20
2019-03-28T03:54:35.028Z,46.90
2019-03-28T03:55:34.999Z,46.80
2019-03-28T03:56:34.972Z,49.00
2019-03-28T03:57:34.966Z,47.50
2019-03-28T03:58:34.911Z,51.40
2019-03-28T03:59:34.883Z,40.10
2019-03-28T04:00:34.860Z,48.80
2019-03-28T04:01:34.826Z,51.70
2019-03-28T04:02:34.796Z,50.20
2019-03-28T04:03:34.769Z,51.80
2019-03-28T04:04:34.754Z,45.10
2019-03-28T04:05:34.715Z,47.50
2019-03-28T04:06:34.681Z,46.40
2019-03-28T04:07:34.654Z,42.60
2019-03-28T04:08:34.625Z,49.70
2019-03-28T04:09:34.595Z,50.00
2019-03-28T04:10:34.577Z,41.60
2019-03-28T04:11:34.550Z,45.20
2019-03-28T04:12:34.518Z,45.60
2019-03-28T04:13:34.485Z,48.70
2019-03-28T04:14:34.459Z,45.30
2019-03-28T04:15:34.420Z,46.70
2019-03-28T04:16:34.393Z,43.60
2019-03-28T04:17:34.368Z,51.70
2019-03-28T04:18:34.340Z,46.10
2019-03-28T04:19:34.309Z,46.40
2019-03-28T04:20:34.277Z,49.10
2019-03-28T04:21:34.251Z,48.30
2019-03-28T04:22:34.223Z,46.20
2019-03-28T04:23:34.191Z,49.00
2019-03-28T04:24:34.162Z,49.00
2019-03-28T04:25:34.143Z,50.50
2019-03-28T04:26:34.103Z,50.30
2019-03-28T04:27:34.075Z,48.30
2019-03-28T04:28:34.045Z,51.40
2019-03-28T04:29:34.019Z,52.10
2019-03-28T04:30:33.989Z,48.10
2019-03-28T04:31:33.965Z,49.00
2019-03-28T04:32:33.939Z,47.70
2019-03-28T04:33:33.905Z,49.20
2019-03-28T04:34:33.873Z,49.30
2019-03-28T04:35:33.849Z,45.80
2019-03-28T04:36:33.816Z,44.40
2019-03-28T04:37:33.789Z,44.40
2019-03-28T04:38:33.758Z,46.00
2019-03-28T04:39:33.729Z,49.30
2019-03-28T04:40:34.448Z,48.80
2019-03-28T04:41:33.673Z,53.80
2019-03-28T04:42:33.642Z,53.40
2019-03-28T04:43:33.616Z,52.70
2019-03-28T04:44:33.587Z,51.30
2019-03-28T04:45:33.557Z,50.60
2019-03-28T04:46:33.529Z,42.10
2019-03-28T04:47:33.500Z,46.80
2019-03-28T04:48:33.474Z,46.40
2019-03-28T04:49:33.447Z,43.80
2019-03-28T04:50:33.414Z,51.00
2019-03-28T04:51:33.386Z,47.90
2019-03-28T04:52:33.358Z,45.10
2019-03-28T04:53:33.329Z,44.40
2019-03-28T04:54:33.299Z,43.40
2019-03-28T04:55:33.270Z,48.90
2019-03-28T04:56:33.251Z,55.20
2019-03-28T04:57:33.215Z,49.80
2019-03-28T04:58:43.819Z,52.80
2019-03-28T04:59:33.156Z,54.50
2019-03-28T05:00:33.382Z,52.00
2019-03-28T05:01:33.104Z,48.40
2019-03-28T05:02:33.071Z,52.80
2019-03-28T05:03:33.044Z,50.40
2019-03-28T05:04:33.034Z,50.90
2019-03-28T05:05:32.990Z,54.00
2019-03-28T05:06:32.955Z,55.40
2019-03-28T05:07:32.929Z,60.70
2019-03-28T05:08:33.417Z,57.20
2019-03-28T05:09:32.872Z,52.90
2019-03-28T05:10:33.195Z,56.00
2019-03-28T05:11:33.333Z,45.30
2019-03-28T05:12:32.786Z,54.50
2019-03-28T05:13:32.758Z,51.20
2019-03-28T05:14:32.729Z,53.50
2019-03-28T05:15:32.704Z,50.70
2019-03-28T05:16:32.671Z,53.40
2019-03-28T05:17:32.645Z,53.80
2019-03-28T05:18:32.616Z,54.30
2019-03-28T05:19:32.585Z,57.50
2019-03-28T05:20:32.558Z,55.80
2019-03-28T05:21:32.529Z,53.80
2019-03-28T05:22:32.500Z,53.90
2019-03-28T05:23:32.472Z,64.90
2019-03-28T05:24:32.645Z,58.00
2019-03-28T05:25:32.414Z,60.70
2019-03-28T05:26:32.388Z,54.60
2019-03-28T05:27:32.880Z,57.30
2019-03-28T05:28:32.334Z,58.30
2019-03-28T05:29:32.302Z,50.10
2019-03-28T05:30:32.273Z,59.50
2019-03-28T05:31:32.243Z,56.10
2019-03-28T05:32:32.217Z,59.50
2019-03-28T05:33:32.188Z,57.10
2019-03-28T05:34:32.159Z,55.10
2019-03-28T05:35:32.132Z,55.80
2019-03-28T05:36:32.106Z,58.10
2019-03-28T05:37:32.074Z,53.70
2019-03-28T05:38:32.044Z,57.10
2019-03-28T05:39:32.016Z,54.40
2019-03-28T05:40:31.989Z,55.30
2019-03-28T05:41:31.961Z,57.00
2019-03-28T05:42:31.934Z,56.00
2019-03-28T05:43:31.902Z,54.90
2019-03-28T05:44:31.876Z,56.60
2019-03-28T05:45:31.848Z,54.70
2019-03-28T05:46:31.818Z,56.40
2019-03-28T05:47:31.792Z,54.10
2019-03-28T05:48:31.765Z,54.60
2019-03-28T05:49:31.734Z,50.80
2019-03-28T05:50:31.705Z,53.30
2019-03-28T05:51:31.679Z,54.60
2019-03-28T05:52:31.649Z,55.40
2019-03-28T05:53:31.620Z,54.90
2019-03-28T05:54:31.591Z,53.00
2019-03-28T05:55:31.565Z,55.80
2019-03-28T05:56:31.535Z,54.60
2019-03-28T05:57:31.507Z,56.70
2019-03-28T05:58:31.478Z,55.60
2019-03-28T05:59:31.453Z,57.40
2019-03-28T06:00:31.422Z,53.10
2019-03-28T06:01:32.311Z,51.70
2019-03-28T06:02:31.363Z,52.10
2019-03-28T06:03:31.336Z,51.50
2019-03-28T06:04:31.311Z,57.40
2019-03-28T06:05:31.280Z,58.50
2019-03-28T06:06:31.251Z,52.30
2019-03-28T06:07:31.225Z,55.10
2019-03-28T06:08:31.195Z,53.80
2019-03-28T06:09:31.171Z,52.80
2019-03-28T06:10:31.138Z,56.70
2019-03-28T06:11:31.133Z,55.10
2019-03-28T06:12:31.082Z,55.30
2019-03-28T06:13:31.053Z,53.40
2019-03-28T06:14:31.024Z,49.70
2019-03-28T06:15:30.997Z,54.50
2019-03-28T06:16:31.042Z,47.70
2019-03-28T06:17:30.940Z,54.50
2019-03-28T06:18:30.912Z,58.30
2019-03-28T06:19:30.885Z,52.20
2019-03-28T06:20:30.856Z,52.40
2019-03-28T06:21:30.829Z,52.60
2019-03-28T06:22:30.799Z,47.50
2019-03-28T06:23:30.772Z,60.00
2019-03-28T06:24:31.249Z,49.70
2019-03-28T06:25:30.716Z,50.20
2019-03-28T06:26:30.690Z,50.60
2019-03-28T06:27:30.661Z,53.20
2019-03-28T06:28:30.631Z,45.10
2019-03-28T06:29:30.602Z,47.60
2019-03-28T06:30:30.575Z,55.90
2019-03-28T06:31:30.549Z,57.90
2019-03-28T06:32:42.254Z,57.50
2019-03-28T06:33:30.492Z,47.50
2019-03-28T06:34:30.463Z,54.40
2019-03-28T06:35:30.435Z,50.30
2019-03-28T06:36:30.405Z,50.40
2019-03-28T06:37:30.380Z,51.80
2019-03-28T06:38:30.353Z,53.80
2019-03-28T06:39:30.323Z,53.80
2019-03-28T06:40:31.307Z,50.90
2019-03-28T06:41:30.266Z,52.90
2019-03-28T06:42:30.239Z,51.80
2019-03-28T06:43:30.213Z,48.40
2019-03-28T06:44:30.184Z,48.60
2019-03-28T06:45:30.154Z,49.00
2019-03-28T06:46:30.125Z,49.70
2019-03-28T06:47:30.098Z,57.90
2019-03-28T06:48:30.068Z,52.60
2019-03-28T06:49:30.042Z,57.10
2019-03-28T06:50:30.013Z,55.90
2019-03-28T06:51:29.985Z,49.20
2019-03-28T06:52:29.958Z,51.90
2019-03-28T06:53:29.929Z,56.60
2019-03-28T06:54:30.577Z,54.40
2019-03-28T06:55:29.877Z,46.40
2019-03-28T06:56:29.846Z,52.30
2019-03-28T06:57:29.818Z,50.90
2019-03-28T06:58:29.788Z,48.70
2019-03-28T06:59:37.119Z,49.90
2019-03-28T07:00:29.734Z,48.40
2019-03-28T07:01:29.706Z,48.40
2019-03-28T07:02:29.680Z,55.70
2019-03-28T07:03:29.649Z,48.80
2019-03-28T07:04:30.258Z,50.90
2019-03-28T07:05:29.595Z,51.00
2019-03-28T07:06:29.569Z,53.70
2019-03-28T07:07:29.537Z,53.90
2019-03-28T07:08:29.510Z,54.10
2019-03-28T07:09:29.483Z,53.50
2019-03-28T07:10:29.455Z,49.50
2019-03-28T07:11:29.428Z,54.10
2019-03-28T07:12:29.398Z,55.60
2019-03-28T07:13:29.371Z,50.60
2019-03-28T07:14:29.345Z,58.30
2019-03-28T07:15:29.315Z,54.30
2019-03-28T07:16:29.288Z,59.90
2019-03-28T07:17:29.268Z,52.80
2019-03-28T07:18:29.232Z,54.60
2019-03-28T07:19:29.243Z,54.10
2019-03-28T07:20:29.177Z,49.80
2019-03-28T07:21:29.149Z,49.00
2019-03-28T07:22:29.120Z,53.70
2019-03-28T07:23:29.092Z,53.10
2019-03-28T07:24:29.064Z,51.10
2019-03-28T07:25:29.038Z,51.00
2019-03-28T07:26:29.010Z,54.70
2019-03-28T07:27:28.981Z,52.80
2019-03-28T07:28:28.954Z,53.40
2019-03-28T07:29:28.937Z,52.40
2019-03-28T07:30:28.898Z,56.20
2019-03-28T07:31:28.869Z,53.10
2019-03-28T07:32:28.843Z,58.30
2019-03-28T07:33:28.823Z,51.30
2019-03-28T07:34:28.787Z,54.30
2019-03-28T07:35:28.760Z,60.60
2019-03-28T07:36:28.732Z,52.50
2019-03-28T07:37:28.707Z,53.20
2019-03-28T07:38:28.676Z,54.40
2019-03-28T07:39:28.650Z,50.40
2019-03-28T07:40:28.621Z,53.30
2019-03-28T07:41:28.593Z,50.60
2019-03-28T07:42:28.564Z,56.30
2019-03-28T07:43:28.538Z,55.60
2019-03-28T07:44:28.692Z,49.90
2019-03-28T07:45:28.485Z,52.40
2019-03-28T07:46:28.454Z,53.60
2019-03-28T07:47:28.428Z,50.70
2019-03-28T07:48:28.400Z,53.00
2019-03-28T07:49:28.373Z,52.80
2019-03-28T07:50:28.344Z,53.90
2019-03-28T07:51:28.327Z,48.20
2019-03-28T07:52:28.291Z,51.50
2019-03-28T07:53:28.263Z,56.30
2019-03-28T07:54:28.234Z,53.00
2019-03-28T07:55:28.207Z,56.20
2019-03-28T07:56:28.179Z,53.40
2019-03-28T07:57:28.154Z,58.80
2019-03-28T07:58:28.125Z,52.40
2019-03-28T07:59:28.100Z,54.50
2019-03-28T08:00:28.070Z,58.30
2019-03-28T08:01:28.055Z,57.60
2019-03-28T08:02:28.016Z,51.80
2019-03-28T08:03:27.985Z,58.00
2019-03-28T08:04:27.958Z,50.80
2019-03-28T08:05:27.932Z,53.20
2019-03-28T08:06:27.904Z,52.80
2019-03-28T08:07:27.879Z,58.10
2019-03-28T08:08:38.237Z,56.30
2019-03-28T08:09:36.598Z,61.80
2019-03-28T08:10:27.792Z,55.90
2019-03-28T08:11:27.890Z,63.40
2019-03-28T08:12:27.737Z,63.20
2019-03-28T08:13:27.711Z,54.00
2019-03-28T08:14:27.682Z,53.50
2019-03-28T08:15:27.655Z,53.40
2019-03-28T08:16:28.924Z,58.90
2019-03-28T08:17:27.599Z,58.90
2019-03-28T08:18:27.572Z,60.10
2019-03-28T08:19:27.545Z,54.10
2019-03-28T08:20:27.516Z,56.90
2019-03-28T08:21:27.490Z,54.40
2019-03-28T08:22:29.679Z,60.20
2019-03-28T08:23:27.434Z,53.00
2019-03-28T08:24:27.406Z,55.20
2019-03-28T08:25:27.379Z,53.30
2019-03-28T08:26:30.074Z,55.90
2019-03-28T08:27:27.324Z,55.00
2019-03-28T08:28:27.296Z,53.00
2019-03-28T08:29:27.270Z,57.00
2019-03-28T08:30:27.240Z,57.70
2019-03-28T08:31:27.212Z,59.80
2019-03-28T08:32:27.186Z,62.30
2019-03-28T08:33:27.158Z,60.00
2019-03-28T08:34:27.129Z,58.30
2019-03-28T08:35:27.102Z,55.90
2019-03-28T08:36:27.074Z,51.90
2019-03-28T08:37:27.047Z,52.80
2019-03-28T08:38:27.018Z,58.40
2019-03-28T08:39:26.991Z,54.60
2019-03-28T08:40:26.964Z,64.00
2019-03-28T08:41:26.937Z,56.10
2019-03-28T08:42:26.909Z,56.20
2019-03-28T08:43:26.880Z,54.90
2019-03-28T08:44:26.852Z,53.90
2019-03-28T08:45:26.827Z,54.80
2019-03-28T08:46:26.798Z,53.60
2019-03-28T08:47:26.771Z,52.70
2019-03-28T08:48:26.742Z,58.30
2019-03-28T08:49:26.715Z,54.70
2019-03-28T08:50:26.691Z,52.10
2019-03-28T08:51:27.499Z,55.00
2019-03-28T08:52:26.634Z,48.40
2019-03-28T08:53:26.608Z,50.30
2019-03-28T08:54:26.578Z,47.60
2019-03-28T08:55:26.551Z,48.50
2019-03-28T08:56:26.525Z,57.00
2019-03-28T08:57:26.502Z,58.20
2019-03-28T08:58:26.468Z,60.50
2019-03-28T08:59:26.441Z,51.50
2019-03-28T09:00:33.063Z,54.00
2019-03-28T09:01:26.388Z,54.20
2019-03-28T09:02:26.359Z,53.50
2019-03-28T09:03:26.331Z,44.50
2019-03-28T09:04:26.306Z,47.60
2019-03-28T09:05:26.281Z,47.00
2019-03-28T09:06:26.258Z,54.20
2019-03-28T09:07:26.231Z,50.50
2019-03-28T09:08:26.198Z,51.00
2019-03-28T09:09:26.171Z,45.60
2019-03-28T09:10:26.142Z,50.00
2019-03-28T09:11:26.116Z,46.60
2019-03-28T09:12:26.090Z,44.50
2019-03-28T09:13:26.063Z,45.40
2019-03-28T09:14:26.038Z,50.80
2019-03-28T09:15:26.010Z,46.10
2019-03-28T09:16:25.983Z,45.00
2019-03-28T09:17:25.954Z,49.00
2019-03-28T09:18:25.927Z,48.30
2019-03-28T09:19:25.912Z,45.30
2019-03-28T09:20:25.874Z,46.30
2019-03-28T09:21:25.846Z,45.10
2019-03-28T09:22:25.818Z,43.40
2019-03-28T09:23:25.792Z,48.80
2019-03-28T09:24:25.765Z,44.50
2019-03-28T09:25:25.737Z,45.40
2019-03-28T09:26:25.711Z,40.70
2019-03-28T09:27:25.684Z,45.20
2019-03-28T09:28:25.666Z,46.30
2019-03-28T09:29:25.632Z,44.20
2019-03-28T09:30:25.605Z,43.10
2019-03-28T09:31:25.577Z,43.10
2019-03-28T09:32:25.550Z,40.70
2019-03-28T09:33:25.525Z,41.50
2019-03-28T09:34:25.510Z,47.20
2019-03-28T09:35:25.469Z,53.10
2019-03-28T09:36:25.451Z,64.20
2019-03-28T09:37:25.415Z,67.80
2019-03-28T09:38:25.388Z,51.10
2019-03-28T09:39:25.369Z,51.90
2019-03-28T09:40:25.337Z,42.90
2019-03-28T09:41:25.309Z,40.20
2019-03-28T09:42:25.283Z,42.30
2019-03-28T09:43:25.255Z,43.00
2019-03-28T09:44:25.228Z,41.50
2019-03-28T09:45:25.201Z,49.10
2019-03-28T09:46:25.176Z,41.30
2019-03-28T09:47:25.147Z,42.60
2019-03-28T09:48:25.121Z,40.70
2019-03-28T09:49:25.094Z,41.40
2019-03-28T09:50:25.066Z,42.80
2019-03-28T09:51:25.041Z,41.20
2019-03-28T09:52:25.014Z,44.10
2019-03-28T09:53:24.989Z,42.20
2019-03-28T09:54:24.959Z,41.60
2019-03-28T09:55:24.934Z,44.90
2019-03-28T09:56:24.907Z,42.70
2019-03-28T09:57:24.880Z,39.50
2019-03-28T09:58:24.854Z,44.40
2019-03-28T09:59:24.827Z,43.60
2019-03-28T10:00:24.804Z,42.70
2019-03-28T10:01:24.776Z,46.90
2019-03-28T10:02:24.746Z,42.20
2019-03-28T10:03:24.721Z,41.70
2019-03-28T10:04:24.693Z,45.60
2019-03-28T10:05:24.669Z,40.70
2019-03-28T10:06:24.640Z,39.30
2019-03-28T10:07:24.611Z,47.90
2019-03-28T10:08:24.586Z,48.40
2019-03-28T10:09:24.559Z,50.10
2019-03-28T10:10:24.532Z,50.00
2019-03-28T10:11:24.504Z,45.40
2019-03-28T10:12:24.478Z,44.20
2019-03-28T10:13:24.451Z,45.40
2019-03-28T10:14:24.424Z,44.60
2019-03-28T10:15:24.400Z,41.10
2019-03-28T10:16:24.384Z,42.90
2019-03-28T10:17:24.347Z,45.10
2019-03-28T10:18:24.317Z,43.60
2019-03-28T10:19:24.292Z,40.60
2019-03-28T10:20:24.264Z,39.90
2019-03-28T10:21:24.241Z,44.80
2019-03-28T10:22:24.212Z,44.40
2019-03-28T10:23:24.184Z,41.40
2019-03-28T10:24:24.160Z,39.20
2019-03-28T10:25:24.132Z,36.50
2019-03-28T10:26:24.105Z,40.30
2019-03-28T10:27:24.080Z,37.10
2019-03-28T10:28:24.052Z,41.80
2019-03-28T10:29:24.027Z,36.70
2019-03-28T10:30:24.021Z,41.40
2019-03-28T10:31:23.974Z,36.10
2019-03-28T10:32:23.946Z,40.00
2019-03-28T10:33:24.536Z,38.80
2019-03-28T10:34:23.895Z,40.10
2019-03-28T10:35:23.868Z,37.70
2019-03-28T10:36:23.844Z,40.80
2019-03-28T10:37:23.816Z,35.50
2019-03-28T10:38:23.792Z,36.00
2019-03-28T10:39:23.765Z,38.80
2019-03-28T10:40:23.737Z,34.80
2019-03-28T10:41:25.871Z,33.20
2019-03-28T10:42:23.684Z,35.30
2019-03-28T10:43:23.660Z,33.60
2019-03-28T10:44:23.632Z,36.80
2019-03-28T10:45:23.606Z,36.60
2019-03-28T10:46:23.578Z,39.20
2019-03-28T10:47:23.553Z,42.70
2019-03-28T10:48:23.652Z,38.40
2019-03-28T10:49:23.501Z,37.20
2019-03-28T10:50:23.474Z,39.10
2019-03-28T10:51:23.447Z,39.80
2019-03-28T10:52:23.422Z,35.30
2019-03-28T10:53:23.396Z,33.90
2019-03-28T10:54:25.788Z,33.50
2019-03-28T10:55:23.342Z,36.70
2019-03-28T10:56:24.185Z,34.50
2019-03-28T10:57:29.941Z,35.00
2019-03-28T10:58:23.263Z,36.70
2019-03-28T10:59:24.065Z,29.10
2019-03-28T11:00:24.524Z,32.60
2019-03-28T11:01:41.486Z,37.80
2019-03-28T11:02:23.158Z,37.50
2019-03-28T11:03:23.133Z,31.90
2019-03-28T11:04:23.107Z,30.60
2019-03-28T11:05:23.079Z,32.50
2019-03-28T11:06:23.052Z,29.80
2019-03-28T11:07:23.026Z,32.00
2019-03-28T11:08:23.002Z,33.80
2019-03-28T11:09:22.975Z,31.10
2019-03-28T11:10:22.948Z,30.50
2019-03-28T11:11:22.926Z,29.60
2019-03-28T11:12:22.897Z,30.50
2019-03-28T11:13:22.871Z,34.40
2019-03-28T11:14:22.843Z,33.70
2019-03-28T11:15:22.818Z,27.30
2019-03-28T11:16:22.791Z,33.70
2019-03-28T11:17:22.765Z,30.90
2019-03-28T11:18:22.739Z,31.10
2019-03-28T11:19:22.713Z,40.10
2019-03-28T11:20:22.687Z,36.60
2019-03-28T11:21:22.662Z,34.40
2019-03-28T11:22:22.632Z,41.40
2019-03-28T11:23:22.608Z,34.00
2019-03-28T11:24:22.581Z,35.60
2019-03-28T11:25:22.555Z,34.20
2019-03-28T11:26:22.530Z,37.80
2019-03-28T11:27:23.547Z,36.60
2019-03-28T11:28:23.484Z,37.20
2019-03-28T11:29:22.450Z,40.00
2019-03-28T11:30:22.424Z,34.90
2019-03-28T11:31:22.397Z,34.60
2019-03-28T11:32:22.372Z,32.30
2019-03-28T11:33:22.489Z,30.30
2019-03-28T11:34:22.319Z,31.60
2019-03-28T11:35:22.293Z,32.10
2019-03-28T11:36:22.274Z,33.40
2019-03-28T11:37:26.502Z,34.50
2019-03-28T11:38:22.217Z,29.00
2019-03-28T11:39:22.189Z,33.00
2019-03-28T11:40:24.567Z,33.90
2019-03-28T11:41:22.137Z,44.60
2019-03-28T11:42:22.111Z,42.70
2019-03-28T11:43:22.090Z,38.60
2019-03-28T11:44:22.059Z,33.40
2019-03-28T11:45:22.033Z,31.30
2019-03-28T11:46:22.006Z,31.30
2019-03-28T11:47:22.498Z,29.80
2019-03-28T11:48:21.954Z,31.40
2019-03-28T11:49:21.930Z,32.70
2019-03-28T11:50:21.901Z,29.30
2019-03-28T11:51:21.876Z,33.20
2019-03-28T11:52:21.850Z,30.50
2019-03-28T11:53:21.826Z,32.40
2019-03-28T11:54:21.798Z,32.00
2019-03-28T11:55:21.773Z,29.70
2019-03-28T11:56:21.747Z,30.60
2019-03-28T11:57:21.721Z,27.10
2019-03-28T11:58:21.694Z,29.70
2019-03-28T11:59:21.667Z,31.10
2019-03-28T12:00:21.643Z,30.00
2019-03-28T12:01:21.615Z,29.00
2019-03-28T12:02:21.589Z,32.20
2019-03-28T12:03:21.563Z,31.60
2019-03-28T12:04:21.538Z,33.10
2019-03-28T12:05:21.512Z,32.10
2019-03-28T12:06:21.486Z,36.50
2019-03-28T12:07:21.459Z,30.10
2019-03-28T12:08:21.433Z,32.60
2019-03-28T12:09:21.406Z,34.20
2019-03-28T12:10:21.381Z,29.90
2019-03-28T12:11:21.361Z,32.90
2019-03-28T12:12:21.330Z,32.90
2019-03-28T12:13:21.304Z,31.60
2019-03-28T12:14:21.276Z,33.40
2019-03-28T12:15:21.250Z,31.90
2019-03-28T12:16:21.225Z,32.40
2019-03-28T12:17:21.199Z,32.90
2019-03-28T12:18:21.188Z,31.90
2019-03-28T12:19:21.148Z,35.00
2019-03-28T12:20:21.120Z,28.20
2019-03-28T12:21:21.093Z,36.70
2019-03-28T12:22:21.069Z,34.90
2019-03-28T12:23:21.054Z,30.80
2019-03-28T12:24:21.015Z,31.00
2019-03-28T12:25:20.988Z,33.60
2019-03-28T12:26:21.029Z,33.70
2019-03-28T12:27:20.935Z,34.60
2019-03-28T12:28:20.909Z,31.50
2019-03-28T12:29:20.882Z,34.20
2019-03-28T12:30:20.855Z,31.70
2019-03-28T12:31:20.828Z,31.10
2019-03-28T12:32:20.802Z,32.30
2019-03-28T12:33:20.776Z,33.50
2019-03-28T12:34:20.763Z,27.40
2019-03-28T12:35:20.726Z,33.00
2019-03-28T12:36:20.731Z,30.80
2019-03-28T12:37:20.672Z,34.50
2019-03-28T12:38:20.643Z,29.20
2019-03-28T12:39:20.909Z,30.90
2019-03-28T12:40:20.592Z,30.00
2019-03-28T12:41:20.565Z,31.60
2019-03-28T12:42:20.539Z,31.60
2019-03-28T12:43:20.510Z,36.90
2019-03-28T12:44:20.485Z,31.70
2019-03-28T12:45:20.459Z,33.10
2019-03-28T12:46:20.431Z,35.80
2019-03-28T12:47:20.405Z,31.40
2019-03-28T12:48:20.380Z,30.70
2019-03-28T12:49:20.352Z,29.90
2019-03-28T12:50:20.325Z,29.10
2019-03-28T12:51:22.222Z,33.80
2019-03-28T12:52:20.274Z,34.00